sensor_id;sensor_type;location;lat;lon;timestamp;pressure;altitude;pressure_sealevel;temperature
49154;BMP280;49455;52.252;9.124;2023-08-06T00:00:22;98775.25;;;14.16
49154;BMP280;49455;52.252;9.124;2023-08-06T00:05:22;98777.69;;;14.14
49154;BMP280;49455;52.252;9.124;2023-08-06T00:10:23;98771.19;;;14.11
49154;BMP280;49455;52.252;9.124;2023-08-06T00:20:23;98755.28;;;14.10
49154;BMP280;49455;52.252;9.124;2023-08-06T00:25:24;98755.63;;;14.03
49154;BMP280;49455;52.252;9.124;2023-08-06T00:30:24;98741.72;;;14.01
49154;BMP280;49455;52.252;9.124;2023-08-06T00:35:24;98739.28;;;14.03
49154;BMP280;49455;52.252;9.124;2023-08-06T00:40:25;98730.50;;;14.08
49154;BMP280;49455;52.252;9.124;2023-08-06T00:45:26;98725.66;;;14.12
49154;BMP280;49455;52.252;9.124;2023-08-06T00:50:27;98714.44;;;14.10
49154;BMP280;49455;52.252;9.124;2023-08-06T00:55:29;98712.66;;;14.07
49154;BMP280;49455;52.252;9.124;2023-08-06T01:00:29;98711.44;;;14.08
49154;BMP280;49455;52.252;9.124;2023-08-06T01:05:30;98697.38;;;14.09
49154;BMP280;49455;52.252;9.124;2023-08-06T01:10:57;98683.03;;;14.09
49154;BMP280;49455;52.252;9.124;2023-08-06T01:16:00;98671.34;;;14.08
49154;BMP280;49455;52.252;9.124;2023-08-06T01:31:27;98671.78;;;14.16
49154;BMP280;49455;52.252;9.124;2023-08-06T01:36:30;98662.69;;;14.19
49154;BMP280;49455;52.252;9.124;2023-08-06T01:41:32;98666.19;;;14.20
49154;BMP280;49455;52.252;9.124;2023-08-06T01:46:33;98663.72;;;14.22
49154;BMP280;49455;52.252;9.124;2023-08-06T01:51:33;98657.09;;;14.23
49154;BMP280;49455;52.252;9.124;2023-08-06T01:56:34;98643.59;;;14.28
49154;BMP280;49455;52.252;9.124;2023-08-06T02:01:34;98638.44;;;14.30
49154;BMP280;49455;52.252;9.124;2023-08-06T02:06:34;98638.44;;;14.30
49154;BMP280;49455;52.252;9.124;2023-08-06T02:11:35;98634.66;;;14.28
49154;BMP280;49455;52.252;9.124;2023-08-06T02:16:35;98636.19;;;14.29
49154;BMP280;49455;52.252;9.124;2023-08-06T02:21:36;98630.28;;;14.30
49154;BMP280;49455;52.252;9.124;2023-08-06T02:26:37;98656.94;;;14.26
49154;BMP280;49455;52.252;9.124;2023-08-06T02:31:37;98645.59;;;14.18
49154;BMP280;49455;52.252;9.124;2023-08-06T02:36:40;98637.59;;;14.15
49154;BMP280;49455;52.252;9.124;2023-08-06T02:41:40;98622.78;;;14.16
49154;BMP280;49455;52.252;9.124;2023-08-06T02:46:41;98614.59;;;14.16
49154;BMP280;49455;52.252;9.124;2023-08-06T02:51:41;98611.59;;;14.14
49154;BMP280;49455;52.252;9.124;2023-08-06T02:56:45;98601.16;;;14.12
49154;BMP280;49455;52.252;9.124;2023-08-06T03:01:52;98576.63;;;14.12
49154;BMP280;49455;52.252;9.124;2023-08-06T03:07:00;98574.84;;;14.09
49154;BMP280;49455;52.252;9.124;2023-08-06T03:12:09;98564.84;;;14.06
49154;BMP280;49455;52.252;9.124;2023-08-06T03:17:09;98580.88;;;14.04
49154;BMP280;49455;52.252;9.124;2023-08-06T03:22:11;98596.06;;;13.96
49154;BMP280;49455;52.252;9.124;2023-08-06T03:27:12;98608.47;;;13.88
49154;BMP280;49455;52.252;9.124;2023-08-06T03:32:15;98639.78;;;13.83
49154;BMP280;49455;52.252;9.124;2023-08-06T03:37:16;98686.50;;;13.73
49154;BMP280;49455;52.252;9.124;2023-08-06T03:42:16;98664.59;;;13.76
49154;BMP280;49455;52.252;9.124;2023-08-06T03:47:17;98665.19;;;13.80
49154;BMP280;49455;52.252;9.124;2023-08-06T03:52:19;98709.19;;;13.79
49154;BMP280;49455;52.252;9.124;2023-08-06T03:57:21;98714.63;;;13.79
49154;BMP280;49455;52.252;9.124;2023-08-06T04:07:23;98750.47;;;13.77
49154;BMP280;49455;52.252;9.124;2023-08-06T04:12:23;98754.09;;;13.74
49154;BMP280;49455;52.252;9.124;2023-08-06T04:17:24;98772.09;;;13.72
49154;BMP280;49455;52.252;9.124;2023-08-06T04:22:25;98789.47;;;13.74
49154;BMP280;49455;52.252;9.124;2023-08-06T04:27:25;98821.09;;;13.81
49154;BMP280;49455;52.252;9.124;2023-08-06T04:32:26;98819.44;;;13.83
49154;BMP280;49455;52.252;9.124;2023-08-06T04:37:28;98842.56;;;13.88
49154;BMP280;49455;52.252;9.124;2023-08-06T04:42:28;98857.22;;;13.90
49154;BMP280;49455;52.252;9.124;2023-08-06T04:47:29;98869.97;;;13.93
49154;BMP280;49455;52.252;9.124;2023-08-06T04:52:29;98864.06;;;13.95
49154;BMP280;49455;52.252;9.124;2023-08-06T04:57:29;98890.09;;;13.96
49154;BMP280;49455;52.252;9.124;2023-08-06T05:02:30;98908.97;;;14.00
49154;BMP280;49455;52.252;9.124;2023-08-06T05:07:33;98910.94;;;13.99
49154;BMP280;49455;52.252;9.124;2023-08-06T05:12:33;98934.25;;;14.00
49154;BMP280;49455;52.252;9.124;2023-08-06T05:17:34;98939.72;;;14.00
49154;BMP280;49455;52.252;9.124;2023-08-06T05:22:34;98943.78;;;14.05
49154;BMP280;49455;52.252;9.124;2023-08-06T05:27:35;98952.09;;;14.10
49154;BMP280;49455;52.252;9.124;2023-08-06T05:32:35;98972.00;;;14.20
49154;BMP280;49455;52.252;9.124;2023-08-06T05:37:35;99014.03;;;14.28
49154;BMP280;49455;52.252;9.124;2023-08-06T05:42:36;98998.78;;;14.40
49154;BMP280;49455;52.252;9.124;2023-08-06T05:47:36;99028.50;;;14.56
49154;BMP280;49455;52.252;9.124;2023-08-06T05:52:37;99026.88;;;14.77
49154;BMP280;49455;52.252;9.124;2023-08-06T05:57:37;98944.16;;;14.99
49154;BMP280;49455;52.252;9.124;2023-08-06T06:02:38;98947.31;;;15.16
49154;BMP280;49455;52.252;9.124;2023-08-06T06:07:38;98944.53;;;15.25
49154;BMP280;49455;52.252;9.124;2023-08-06T06:12:39;98943.16;;;15.39
49154;BMP280;49455;52.252;9.124;2023-08-06T06:17:39;98927.34;;;15.52
49154;BMP280;49455;52.252;9.124;2023-08-06T06:22:39;98938.16;;;15.70
49154;BMP280;49455;52.252;9.124;2023-08-06T06:27:40;98913.53;;;15.79
49154;BMP280;49455;52.252;9.124;2023-08-06T06:32:40;98899.66;;;15.92
49154;BMP280;49455;52.252;9.124;2023-08-06T06:37:41;98899.19;;;16.18
49154;BMP280;49455;52.252;9.124;2023-08-06T06:42:41;98896.00;;;16.34
49154;BMP280;49455;52.252;9.124;2023-08-06T06:47:43;98893.34;;;16.49
49154;BMP280;49455;52.252;9.124;2023-08-06T06:52:43;98886.38;;;16.63
49154;BMP280;49455;52.252;9.124;2023-08-06T06:57:43;98880.34;;;16.73
49154;BMP280;49455;52.252;9.124;2023-08-06T07:02:44;98880.53;;;16.85
49154;BMP280;49455;52.252;9.124;2023-08-06T07:07:44;98881.81;;;17.04
49154;BMP280;49455;52.252;9.124;2023-08-06T07:12:45;98882.75;;;17.16
49154;BMP280;49455;52.252;9.124;2023-08-06T07:17:45;98880.63;;;17.40
49154;BMP280;49455;52.252;9.124;2023-08-06T07:22:45;98875.84;;;17.55
49154;BMP280;49455;52.252;9.124;2023-08-06T07:27:46;98863.81;;;17.68
49154;BMP280;49455;52.252;9.124;2023-08-06T07:32:46;98875.94;;;17.81
49154;BMP280;49455;52.252;9.124;2023-08-06T07:37:47;98861.69;;;17.98
49154;BMP280;49455;52.252;9.124;2023-08-06T07:42:47;98854.41;;;17.95
49154;BMP280;49455;52.252;9.124;2023-08-06T07:47:47;98849.94;;;17.97
49154;BMP280;49455;52.252;9.124;2023-08-06T07:52:48;98861.72;;;18.24
49154;BMP280;49455;52.252;9.124;2023-08-06T07:57:48;98859.09;;;18.35
49154;BMP280;49455;52.252;9.124;2023-08-06T08:02:49;98861.16;;;18.72
49154;BMP280;49455;52.252;9.124;2023-08-06T08:07:49;98854.50;;;18.84
49154;BMP280;49455;52.252;9.124;2023-08-06T08:12:49;98856.19;;;18.76
49154;BMP280;49455;52.252;9.124;2023-08-06T08:17:50;98857.19;;;19.10
49154;BMP280;49455;52.252;9.124;2023-08-06T08:22:50;98863.38;;;19.48
49154;BMP280;49455;52.252;9.124;2023-08-06T08:32:51;98838.78;;;19.87
49154;BMP280;49455;52.252;9.124;2023-08-06T08:42:54;98841.53;;;19.81
49154;BMP280;49455;52.252;9.124;2023-08-06T08:47:55;98826.59;;;19.94
49154;BMP280;49455;52.252;9.124;2023-08-06T08:52:56;98831.97;;;19.66
49154;BMP280;49455;52.252;9.124;2023-08-06T08:57:56;98815.75;;;19.62
49154;BMP280;49455;52.252;9.124;2023-08-06T09:08:03;98810.16;;;19.40
49154;BMP280;49455;52.252;9.124;2023-08-06T09:13:03;98820.91;;;19.38
49154;BMP280;49455;52.252;9.124;2023-08-06T09:18:11;98819.44;;;19.48
49154;BMP280;49455;52.252;9.124;2023-08-06T09:23:11;98812.78;;;19.77
49154;BMP280;49455;52.252;9.124;2023-08-06T09:28:12;98808.13;;;20.28
49154;BMP280;49455;52.252;9.124;2023-08-06T09:33:17;98798.13;;;20.25
49154;BMP280;49455;52.252;9.124;2023-08-06T09:43:19;98789.84;;;19.91
49154;BMP280;49455;52.252;9.124;2023-08-06T09:48:24;98782.78;;;19.62
49154;BMP280;49455;52.252;9.124;2023-08-06T09:53:25;98780.53;;;19.61
49154;BMP280;49455;52.252;9.124;2023-08-06T09:58:25;98758.03;;;19.51
49154;BMP280;49455;52.252;9.124;2023-08-06T10:03:27;98761.00;;;19.47
49154;BMP280;49455;52.252;9.124;2023-08-06T10:08:28;98762.31;;;19.63
49154;BMP280;49455;52.252;9.124;2023-08-06T10:13:30;98762.34;;;19.91
49154;BMP280;49455;52.252;9.124;2023-08-06T10:18:31;98769.88;;;20.30
49154;BMP280;49455;52.252;9.124;2023-08-06T10:23:36;98781.69;;;21.11
49154;BMP280;49455;52.252;9.124;2023-08-06T10:28:38;98767.56;;;21.37
49154;BMP280;49455;52.252;9.124;2023-08-06T10:33:43;98762.28;;;21.86
49154;BMP280;49455;52.252;9.124;2023-08-06T10:38:45;98763.28;;;21.83
49154;BMP280;49455;52.252;9.124;2023-08-06T10:48:47;98747.44;;;21.53
49154;BMP280;49455;52.252;9.124;2023-08-06T10:53:49;98748.72;;;22.18
49154;BMP280;49455;52.252;9.124;2023-08-06T10:58:51;98750.69;;;22.48
49154;BMP280;49455;52.252;9.124;2023-08-06T11:03:51;98751.13;;;22.95
49154;BMP280;49455;52.252;9.124;2023-08-06T11:08:53;98703.69;;;22.04
49154;BMP280;49455;52.252;9.124;2023-08-06T11:13:53;98713.72;;;21.77
49154;BMP280;49455;52.252;9.124;2023-08-06T11:18:54;98706.59;;;21.88
49154;BMP280;49455;52.252;9.124;2023-08-06T11:23:55;98704.16;;;21.78
49154;BMP280;49455;52.252;9.124;2023-08-06T11:33:56;98676.28;;;21.52
49154;BMP280;49455;52.252;9.124;2023-08-06T11:38:57;98686.94;;;21.97
49154;BMP280;49455;52.252;9.124;2023-08-06T11:53:59;98701.13;;;22.61
49154;BMP280;49455;52.252;9.124;2023-08-06T11:59:00;98714.16;;;22.60
49154;BMP280;49455;52.252;9.124;2023-08-06T12:09:01;98656.31;;;22.30
49154;BMP280;49455;52.252;9.124;2023-08-06T12:14:01;98654.91;;;22.18
49154;BMP280;49455;52.252;9.124;2023-08-06T12:19:01;98652.09;;;22.24
49154;BMP280;49455;52.252;9.124;2023-08-06T12:24:02;98656.59;;;22.02
49154;BMP280;49455;52.252;9.124;2023-08-06T12:29:02;98653.69;;;22.38
49154;BMP280;49455;52.252;9.124;2023-08-06T12:34:03;98652.63;;;23.03
49154;BMP280;49455;52.252;9.124;2023-08-06T12:39:03;98673.72;;;24.10
49154;BMP280;49455;52.252;9.124;2023-08-06T12:49:04;98645.56;;;23.21
49154;BMP280;49455;52.252;9.124;2023-08-06T12:54:04;98632.47;;;23.54
49154;BMP280;49455;52.252;9.124;2023-08-06T12:59:04;98633.78;;;23.53
49154;BMP280;49455;52.252;9.124;2023-08-06T13:04:05;98629.38;;;23.44
49154;BMP280;49455;52.252;9.124;2023-08-06T13:09:06;98615.88;;;23.40
49154;BMP280;49455;52.252;9.124;2023-08-06T13:14:09;98615.44;;;23.50
49154;BMP280;49455;52.252;9.124;2023-08-06T13:19:10;98615.75;;;23.33
49154;BMP280;49455;52.252;9.124;2023-08-06T13:24:11;98609.88;;;23.23
49154;BMP280;49455;52.252;9.124;2023-08-06T13:29:11;98576.72;;;23.36
49154;BMP280;49455;52.252;9.124;2023-08-06T13:34:11;98591.56;;;23.07
49154;BMP280;49455;52.252;9.124;2023-08-06T13:39:18;98593.97;;;22.78
49154;BMP280;49455;52.252;9.124;2023-08-06T13:44:19;98579.47;;;22.91
49154;BMP280;49455;52.252;9.124;2023-08-06T13:49:19;98584.69;;;22.76
49154;BMP280;49455;52.252;9.124;2023-08-06T13:54:19;98569.41;;;22.75
49154;BMP280;49455;52.252;9.124;2023-08-06T13:59:20;98582.25;;;22.72
49154;BMP280;49455;52.252;9.124;2023-08-06T14:04:20;98577.56;;;22.48
49154;BMP280;49455;52.252;9.124;2023-08-06T14:09:21;98581.31;;;22.70
49154;BMP280;49455;52.252;9.124;2023-08-06T14:19:21;98582.16;;;22.97
49154;BMP280;49455;52.252;9.124;2023-08-06T14:24:22;98569.94;;;22.92
49154;BMP280;49455;52.252;9.124;2023-08-06T14:29:22;98569.06;;;22.97
49154;BMP280;49455;52.252;9.124;2023-08-06T14:34:23;98572.03;;;23.31
49154;BMP280;49455;52.252;9.124;2023-08-06T14:39:23;98546.13;;;22.70
49154;BMP280;49455;52.252;9.124;2023-08-06T14:44:23;98563.22;;;22.69
49154;BMP280;49455;52.252;9.124;2023-08-06T14:49:24;98590.00;;;22.55
49154;BMP280;49455;52.252;9.124;2023-08-06T14:54:24;98583.28;;;22.31
49154;BMP280;49455;52.252;9.124;2023-08-06T14:59:24;98584.53;;;22.11
49154;BMP280;49455;52.252;9.124;2023-08-06T15:04:25;98574.47;;;22.14
49154;BMP280;49455;52.252;9.124;2023-08-06T15:09:25;98571.03;;;22.08
49154;BMP280;49455;52.252;9.124;2023-08-06T15:14:26;98564.06;;;21.52
49154;BMP280;49455;52.252;9.124;2023-08-06T15:19:26;98584.69;;;21.70
49154;BMP280;49455;52.252;9.124;2023-08-06T15:24:26;98587.75;;;21.67
49154;BMP280;49455;52.252;9.124;2023-08-06T15:29:27;98580.31;;;21.56
49154;BMP280;49455;52.252;9.124;2023-08-06T15:34:27;98571.22;;;21.67
49154;BMP280;49455;52.252;9.124;2023-08-06T15:39:28;98560.91;;;21.43
49154;BMP280;49455;52.252;9.124;2023-08-06T15:44:28;98569.66;;;21.47
49154;BMP280;49455;52.252;9.124;2023-08-06T15:49:28;98586.47;;;21.38
49154;BMP280;49455;52.252;9.124;2023-08-06T15:54:29;98602.00;;;21.71
49154;BMP280;49455;52.252;9.124;2023-08-06T15:59:30;98601.59;;;21.85
49154;BMP280;49455;52.252;9.124;2023-08-06T16:04:31;98606.06;;;21.89
49154;BMP280;49455;52.252;9.124;2023-08-06T16:09:32;98601.25;;;21.70
49154;BMP280;49455;52.252;9.124;2023-08-06T16:14:32;98606.69;;;21.76
49154;BMP280;49455;52.252;9.124;2023-08-06T16:19:32;98609.25;;;21.68
49154;BMP280;49455;52.252;9.124;2023-08-06T16:24:33;98597.50;;;21.38
49154;BMP280;49455;52.252;9.124;2023-08-06T16:29:33;98597.38;;;20.83
49154;BMP280;49455;52.252;9.124;2023-08-06T16:34:34;98601.88;;;20.17
49154;BMP280;49455;52.252;9.124;2023-08-06T16:39:34;98614.19;;;19.43
49154;BMP280;49455;52.252;9.124;2023-08-06T16:44:34;98614.19;;;19.32
49154;BMP280;49455;52.252;9.124;2023-08-06T16:49:35;98621.38;;;19.01
49154;BMP280;49455;52.252;9.124;2023-08-06T16:54:35;98606.56;;;18.87
49154;BMP280;49455;52.252;9.124;2023-08-06T16:59:35;98614.25;;;18.72
49154;BMP280;49455;52.252;9.124;2023-08-06T17:04:36;98597.78;;;18.72
49154;BMP280;49455;52.252;9.124;2023-08-06T17:09:36;98612.06;;;18.82
49154;BMP280;49455;52.252;9.124;2023-08-06T17:14:37;98617.78;;;18.84
49154;BMP280;49455;52.252;9.124;2023-08-06T17:19:37;98611.72;;;18.63
49154;BMP280;49455;52.252;9.124;2023-08-06T17:24:37;98625.91;;;18.55
49154;BMP280;49455;52.252;9.124;2023-08-06T17:29:38;98635.06;;;18.47
49154;BMP280;49455;52.252;9.124;2023-08-06T17:34:38;98630.69;;;18.23
49154;BMP280;49455;52.252;9.124;2023-08-06T17:39:39;98596.34;;;17.59
49154;BMP280;49455;52.252;9.124;2023-08-06T17:44:39;98619.72;;;17.08
49154;BMP280;49455;52.252;9.124;2023-08-06T17:49:40;98633.25;;;16.76
49154;BMP280;49455;52.252;9.124;2023-08-06T17:54:40;98658.22;;;16.84
49154;BMP280;49455;52.252;9.124;2023-08-06T17:59:40;98651.38;;;16.74
49154;BMP280;49455;52.252;9.124;2023-08-06T18:04:42;98639.00;;;16.23
49154;BMP280;49455;52.252;9.124;2023-08-06T18:09:42;98633.06;;;16.09
49154;BMP280;49455;52.252;9.124;2023-08-06T18:14:43;98624.50;;;15.87
49154;BMP280;49455;52.252;9.124;2023-08-06T18:19:44;98639.38;;;15.86
49154;BMP280;49455;52.252;9.124;2023-08-06T18:24:44;98649.72;;;15.82
49154;BMP280;49455;52.252;9.124;2023-08-06T18:29:45;98663.88;;;15.95
49154;BMP280;49455;52.252;9.124;2023-08-06T18:34:45;98674.78;;;15.95
49154;BMP280;49455;52.252;9.124;2023-08-06T18:39:49;98664.91;;;15.83
49154;BMP280;49455;52.252;9.124;2023-08-06T18:44:50;98663.97;;;15.71
49154;BMP280;49455;52.252;9.124;2023-08-06T18:49:50;98675.06;;;15.68
49154;BMP280;49455;52.252;9.124;2023-08-06T18:54:50;98670.31;;;15.53
49154;BMP280;49455;52.252;9.124;2023-08-06T18:59:51;98682.63;;;15.49
49154;BMP280;49455;52.252;9.124;2023-08-06T19:04:54;98680.69;;;15.49
49154;BMP280;49455;52.252;9.124;2023-08-06T19:09:54;98686.88;;;15.50
49154;BMP280;49455;52.252;9.124;2023-08-06T19:14:55;98679.16;;;15.48
49154;BMP280;49455;52.252;9.124;2023-08-06T19:19:55;98676.59;;;15.45
49154;BMP280;49455;52.252;9.124;2023-08-06T19:24:55;98688.31;;;15.36
49154;BMP280;49455;52.252;9.124;2023-08-06T19:29:56;98695.19;;;15.31
49154;BMP280;49455;52.252;9.124;2023-08-06T19:34:56;98684.47;;;15.28
49154;BMP280;49455;52.252;9.124;2023-08-06T19:39:57;98691.81;;;15.36
49154;BMP280;49455;52.252;9.124;2023-08-06T19:44:58;98681.16;;;15.24
49154;BMP280;49455;52.252;9.124;2023-08-06T19:50:01;98696.19;;;15.19
49154;BMP280;49455;52.252;9.124;2023-08-06T19:55:01;98706.06;;;15.17
49154;BMP280;49455;52.252;9.124;2023-08-06T20:00:02;98698.69;;;15.08
49154;BMP280;49455;52.252;9.124;2023-08-06T20:05:12;98702.47;;;15.10
49154;BMP280;49455;52.252;9.124;2023-08-06T20:10:13;98697.44;;;15.09
49154;BMP280;49455;52.252;9.124;2023-08-06T20:15:13;98707.72;;;15.14
49154;BMP280;49455;52.252;9.124;2023-08-06T20:20:14;98702.63;;;15.31
49154;BMP280;49455;52.252;9.124;2023-08-06T20:25:14;98708.00;;;15.40
49154;BMP280;49455;52.252;9.124;2023-08-06T20:30:15;98843.84;;;15.45
49154;BMP280;49455;52.252;9.124;2023-08-06T20:35:15;98703.41;;;15.46
49154;BMP280;49455;52.252;9.124;2023-08-06T20:40:15;98717.53;;;15.45
49154;BMP280;49455;52.252;9.124;2023-08-06T20:45:16;98727.22;;;15.46
49154;BMP280;49455;52.252;9.124;2023-08-06T20:50:16;98718.59;;;15.47
49154;BMP280;49455;52.252;9.124;2023-08-06T20:55:18;98734.19;;;15.47
49154;BMP280;49455;52.252;9.124;2023-08-06T21:00:18;98734.19;;;15.47
49154;BMP280;49455;52.252;9.124;2023-08-06T21:05:19;98737.22;;;15.49
49154;BMP280;49455;52.252;9.124;2023-08-06T21:10:19;98742.97;;;15.51
49154;BMP280;49455;52.252;9.124;2023-08-06T21:15:20;98740.25;;;15.51
49154;BMP280;49455;52.252;9.124;2023-08-06T21:20:20;98759.63;;;15.53
49154;BMP280;49455;52.252;9.124;2023-08-06T21:25:20;98759.03;;;15.49
49154;BMP280;49455;52.252;9.124;2023-08-06T21:30:21;98758.94;;;15.43
49154;BMP280;49455;52.252;9.124;2023-08-06T21:35:21;98764.84;;;15.42
49154;BMP280;49455;52.252;9.124;2023-08-06T21:45:22;98787.31;;;15.36
49154;BMP280;49455;52.252;9.124;2023-08-06T21:50:22;98775.97;;;15.29
49154;BMP280;49455;52.252;9.124;2023-08-06T21:55:23;98783.44;;;15.28
49154;BMP280;49455;52.252;9.124;2023-08-06T22:00:23;98792.06;;;15.27
49154;BMP280;49455;52.252;9.124;2023-08-06T22:05:24;98785.09;;;15.26
49154;BMP280;49455;52.252;9.124;2023-08-06T22:10:24;98790.75;;;15.22
49154;BMP280;49455;52.252;9.124;2023-08-06T22:15:24;98799.09;;;15.19
49154;BMP280;49455;52.252;9.124;2023-08-06T22:25:25;98791.53;;;15.13
49154;BMP280;49455;52.252;9.124;2023-08-06T22:30:26;98796.22;;;15.13
49154;BMP280;49455;52.252;9.124;2023-08-06T22:35:26;98794.59;;;15.06
49154;BMP280;49455;52.252;9.124;2023-08-06T22:40:27;98786.56;;;15.03
49154;BMP280;49455;52.252;9.124;2023-08-06T22:45:27;98776.31;;;14.98
49154;BMP280;49455;52.252;9.124;2023-08-06T22:50:28;98793.28;;;14.93
49154;BMP280;49455;52.252;9.124;2023-08-06T22:55:28;98785.25;;;14.89
49154;BMP280;49455;52.252;9.124;2023-08-06T23:05:29;98783.78;;;14.79
49154;BMP280;49455;52.252;9.124;2023-08-06T23:10:29;98778.38;;;14.70
49154;BMP280;49455;52.252;9.124;2023-08-06T23:15:30;98787.00;;;14.68
49154;BMP280;49455;52.252;9.124;2023-08-06T23:20:30;98798.53;;;14.63
49154;BMP280;49455;52.252;9.124;2023-08-06T23:25:34;98791.25;;;14.60
49154;BMP280;49455;52.252;9.124;2023-08-06T23:30:34;98796.41;;;14.58
49154;BMP280;49455;52.252;9.124;2023-08-06T23:35:35;98805.03;;;14.56
49154;BMP280;49455;52.252;9.124;2023-08-06T23:40:35;98802.78;;;14.55
49154;BMP280;49455;52.252;9.124;2023-08-06T23:45:36;98814.44;;;14.55
49154;BMP280;49455;52.252;9.124;2023-08-06T23:50:37;98811.72;;;14.55
49154;BMP280;49455;52.252;9.124;2023-08-06T23:55:37;98796.75;;;14.51
